createdAt,value
2022-12-11T00:01:11.944Z,95875.69
2022-12-11T00:03:40.595Z,95882.78
2022-12-11T00:06:14.366Z,95878.78
2022-12-11T00:08:43.147Z,95883.75
2022-12-11T00:11:17.918Z,95878.34
2022-12-11T00:13:46.041Z,95878.28
2022-12-11T00:16:14.215Z,95877.13
2022-12-11T00:18:42.387Z,95881.25
2022-12-11T00:21:15.592Z,95889.59
2022-12-11T00:23:44.017Z,95881.84
2022-12-11T00:26:15.668Z,95882.81
2022-12-11T00:28:44.431Z,95884.56
2022-12-11T00:31:17.471Z,95885.94
2022-12-11T00:33:48.903Z,95877.50
2022-12-11T00:36:22.552Z,95882.91
2022-12-11T00:38:51.484Z,95882.53
2022-12-11T00:41:19.824Z,95889.06
2022-12-11T00:43:48.471Z,95881.75
2022-12-11T00:46:16.755Z,95878.41
2022-12-11T00:48:46.125Z,95877.09
2022-12-11T00:51:14.260Z,95869.78
2022-12-11T00:53:44.043Z,95870.00
2022-12-11T00:56:15.329Z,95878.47
2022-12-11T00:58:43.689Z,95876.53
2022-12-11T01:01:15.601Z,95880.56
2022-12-11T01:03:43.937Z,95884.09
2022-12-11T01:06:16.931Z,95882.19
2022-12-11T01:08:47.819Z,95887.47
2022-12-11T01:11:17.198Z,95898.06
2022-12-11T01:13:46.262Z,95902.03
2022-12-11T01:16:16.810Z,95898.06
2022-12-11T01:18:45.522Z,95899.00
2022-12-11T01:21:15.092Z,95902.50
2022-12-11T01:23:43.192Z,95915.53
2022-12-11T01:26:15.461Z,95916.88
2022-12-11T01:28:44.402Z,95914.53
2022-12-11T01:31:15.554Z,95911.19
2022-12-11T01:33:44.108Z,95916.31
2022-12-11T01:36:15.059Z,95919.44
2022-12-11T01:38:43.341Z,95914.16
2022-12-11T01:41:13.000Z,95920.38
2022-12-11T01:44:03.053Z,95923.47
2022-12-11T01:46:33.779Z,95923.69
2022-12-11T01:49:04.855Z,95911.88
2022-12-11T01:51:37.027Z,95921.34
2022-12-11T01:54:12.334Z,95931.59
2022-12-11T01:56:45.000Z,95930.59
2022-12-11T01:59:15.483Z,95934.59
2022-12-11T02:01:50.300Z,95939.53
2022-12-11T02:04:19.752Z,95937.19
2022-12-11T02:06:51.016Z,95931.38
2022-12-11T02:09:23.346Z,95933.06
2022-12-11T02:12:02.970Z,95936.75
2022-12-11T02:14:39.572Z,95931.19
2022-12-11T02:17:14.442Z,95929.47
2022-12-11T02:20:01.821Z,95928.56
2022-12-11T02:23:04.940Z,95928.28
2022-12-11T02:25:38.859Z,95923.75
2022-12-11T02:28:22.060Z,95921.06
2022-12-11T02:30:56.895Z,95923.03
2022-12-11T02:33:43.196Z,95922.59
2022-12-11T02:36:12.306Z,95926.41
2022-12-11T02:38:46.838Z,95927.19
2022-12-11T02:41:15.257Z,95925.47
2022-12-11T02:43:45.656Z,95927.81
2022-12-11T02:46:15.265Z,95932.56
2022-12-11T02:49:10.504Z,95931.06
2022-12-11T02:51:43.213Z,95925.41
2022-12-11T02:54:20.214Z,95929.28
2022-12-11T02:57:27.709Z,95925.75
2022-12-11T03:00:21.567Z,95928.81
2022-12-11T03:02:49.961Z,95927.00
2022-12-11T03:05:18.224Z,95929.28
2022-12-11T03:07:46.737Z,95921.56
2022-12-11T03:10:19.661Z,95926.63
2022-12-11T03:12:54.117Z,95920.47
2022-12-11T03:15:33.572Z,95914.06
2022-12-11T03:18:10.410Z,95925.75
2022-12-11T03:20:44.005Z,95927.16
2022-12-11T03:23:22.584Z,95930.91
2022-12-11T03:25:57.366Z,95926.00
2022-12-11T03:28:31.195Z,95921.16
2022-12-11T03:31:09.211Z,95923.69
2022-12-11T03:33:41.371Z,95934.38
2022-12-11T03:36:15.406Z,95919.09
2022-12-11T03:38:50.112Z,95914.44
2022-12-11T03:41:21.825Z,95913.50
2022-12-11T03:43:52.316Z,95920.94
2022-12-11T03:46:26.497Z,95927.06
2022-12-11T03:48:57.454Z,95926.41
2022-12-11T03:51:26.577Z,95924.16
2022-12-11T03:53:56.255Z,95923.75
2022-12-11T03:56:27.794Z,95922.84
2022-12-11T03:58:55.935Z,95921.75
2022-12-11T04:01:25.457Z,95917.03
2022-12-11T04:03:54.110Z,95917.47
2022-12-11T04:06:22.263Z,95919.09
2022-12-11T04:08:50.425Z,95915.69
2022-12-11T04:11:36.787Z,95919.91
2022-12-11T04:14:29.738Z,95915.03
2022-12-11T04:17:02.137Z,95909.84
2022-12-11T04:19:48.056Z,95904.56
2022-12-11T04:22:36.981Z,95898.53
2022-12-11T04:25:09.869Z,95904.22
2022-12-11T04:27:58.120Z,95894.19
2022-12-11T04:30:33.792Z,95886.72
2022-12-11T04:33:03.794Z,95886.72
2022-12-11T04:35:31.935Z,95885.94
2022-12-11T04:38:01.244Z,95891.13
2022-12-11T04:40:29.428Z,95888.09
2022-12-11T04:42:57.526Z,95889.69
2022-12-11T04:45:25.583Z,95894.38
2022-12-11T04:47:53.685Z,95889.19
2022-12-11T04:50:23.282Z,95891.47
2022-12-11T04:52:51.381Z,95886.66
2022-12-11T04:55:19.607Z,95892.81
2022-12-11T04:57:47.760Z,95893.16
2022-12-11T05:00:17.243Z,95887.16
2022-12-11T05:02:45.333Z,95884.06
2022-12-11T05:05:14.303Z,95882.84
2022-12-11T05:07:43.975Z,95877.94
2022-12-11T05:10:12.139Z,95883.53
2022-12-11T05:12:40.263Z,95874.94
2022-12-11T05:15:09.982Z,95875.34
2022-12-11T05:17:38.328Z,95873.03
2022-12-11T05:20:07.879Z,95885.50
2022-12-11T05:22:35.979Z,95880.41
2022-12-11T05:25:06.463Z,95874.03
2022-12-11T05:27:35.107Z,95874.56
2022-12-11T05:30:03.289Z,95868.44
2022-12-11T05:32:31.981Z,95875.22
2022-12-11T05:35:00.116Z,95864.25
2022-12-11T05:37:28.404Z,95861.06
2022-12-11T05:39:56.470Z,95858.91
2022-12-11T05:42:29.022Z,95862.94
2022-12-11T05:44:57.352Z,95862.47
2022-12-11T05:47:25.725Z,95859.44
2022-12-11T05:49:53.966Z,95861.91
2022-12-11T05:52:22.126Z,95860.56
2022-12-11T05:54:50.636Z,95856.78
2022-12-11T05:57:18.773Z,95860.06
2022-12-11T05:59:48.179Z,95858.25
2022-12-11T06:02:16.334Z,95860.63
2022-12-11T06:04:44.464Z,95861.69
2022-12-11T06:07:12.796Z,95865.41
2022-12-11T06:09:40.852Z,95866.13
2022-12-11T06:12:08.936Z,95857.03
2022-12-11T06:14:36.993Z,95859.78
2022-12-11T06:17:06.582Z,95865.81
2022-12-11T06:19:36.969Z,95862.88
2022-12-11T06:22:05.878Z,95853.88
2022-12-11T06:24:33.974Z,95855.44
2022-12-11T06:27:02.213Z,95860.22
2022-12-11T06:29:30.356Z,95855.41
2022-12-11T06:31:58.507Z,95844.44
2022-12-11T06:34:28.112Z,95849.56
2022-12-11T06:36:56.177Z,95850.81
2022-12-11T06:39:24.245Z,95835.16
2022-12-11T06:41:52.325Z,95836.50
2022-12-11T06:44:20.408Z,95835.56
2022-12-11T06:46:48.465Z,95836.81
2022-12-11T06:49:16.930Z,95834.66
2022-12-11T06:51:46.446Z,95846.72
2022-12-11T06:54:14.787Z,95847.75
2022-12-11T06:56:42.954Z,95856.63
2022-12-11T06:59:13.543Z,95862.97
2022-12-11T07:01:41.844Z,95862.97
2022-12-11T07:04:10.776Z,95869.16
2022-12-11T07:06:38.848Z,95875.59
2022-12-11T07:09:08.338Z,95876.22
2022-12-11T07:11:36.398Z,95873.63
2022-12-11T07:14:04.518Z,95872.75
2022-12-11T07:16:32.648Z,95869.72
2022-12-11T07:19:01.295Z,95870.22
2022-12-11T07:21:29.803Z,95875.94
2022-12-11T07:23:57.826Z,95875.00
2022-12-11T07:26:27.624Z,95878.69
2022-12-11T07:28:58.725Z,95885.59
2022-12-11T07:31:29.786Z,95885.31
2022-12-11T07:33:59.482Z,95883.16
2022-12-11T07:36:29.541Z,95885.53
2022-12-11T07:38:57.983Z,95893.41
2022-12-11T07:41:28.782Z,95887.13
2022-12-11T07:43:57.157Z,95890.94
2022-12-11T07:46:29.226Z,95883.06
2022-12-11T07:48:57.449Z,95884.91
2022-12-11T07:51:28.227Z,95874.50
2022-12-11T07:53:59.028Z,95872.19
2022-12-11T07:56:29.917Z,95869.28
2022-12-11T07:59:01.194Z,95869.16
2022-12-11T08:01:31.899Z,95871.81
2022-12-11T08:04:00.465Z,95880.47
2022-12-11T08:06:30.640Z,95868.84
2022-12-11T08:09:00.936Z,95873.66
2022-12-11T08:11:30.865Z,95870.31
2022-12-11T08:14:00.188Z,95875.69
2022-12-11T08:16:28.727Z,95868.25
2022-12-11T08:18:56.825Z,95873.44
2022-12-11T08:21:27.801Z,95875.84
2022-12-11T08:23:56.586Z,95884.41
2022-12-11T08:26:27.975Z,95880.75
2022-12-11T08:28:58.547Z,95877.66
2022-12-11T08:31:27.835Z,95879.78
2022-12-11T08:33:58.986Z,95876.66
2022-12-11T08:36:27.162Z,95875.84
2022-12-11T08:38:56.905Z,95883.03
2022-12-11T08:41:28.057Z,95877.34
2022-12-11T08:44:00.323Z,95887.97
2022-12-11T08:46:34.413Z,95885.38
2022-12-11T08:49:02.547Z,95888.44
2022-12-11T08:51:32.013Z,95887.97
2022-12-11T08:54:02.419Z,95884.44
2022-12-11T08:56:31.109Z,95884.75
2022-12-11T08:59:04.091Z,95884.63
2022-12-11T09:01:37.649Z,95883.47
2022-12-11T09:04:05.974Z,95881.16
2022-12-11T09:06:34.799Z,95879.81
2022-12-11T09:09:04.404Z,95877.53
2022-12-11T09:11:35.809Z,95873.06
2022-12-11T09:14:08.179Z,95879.38
2022-12-11T09:16:41.250Z,95866.25
2022-12-11T09:19:13.427Z,95864.47
2022-12-11T09:21:44.655Z,95862.22
2022-12-11T09:24:14.914Z,95868.09
2022-12-11T09:26:43.578Z,95859.75
2022-12-11T09:29:13.867Z,95856.72
2022-12-11T09:31:43.259Z,95858.53
2022-12-11T09:34:14.658Z,95859.69
2022-12-11T09:36:44.213Z,95865.63
2022-12-11T09:39:14.873Z,95867.16
2022-12-11T09:41:56.254Z,95852.06
2022-12-11T09:44:39.662Z,95857.53
2022-12-11T09:47:21.513Z,95853.22
2022-12-11T09:49:55.974Z,95861.03
2022-12-11T09:52:32.967Z,95863.63
2022-12-11T09:55:05.337Z,95860.44
2022-12-11T09:57:45.393Z,95861.56
2022-12-11T10:00:25.538Z,95861.13
2022-12-11T10:03:21.728Z,95849.75
2022-12-11T10:06:04.187Z,95856.75
2022-12-11T10:08:40.155Z,95845.78
2022-12-11T10:11:32.187Z,95837.03
2022-12-11T10:14:09.686Z,95832.78
2022-12-11T10:16:44.913Z,95835.38
2022-12-11T10:19:20.127Z,95838.19
2022-12-11T10:21:50.318Z,95834.44
2022-12-11T10:24:59.310Z,95826.25
2022-12-11T10:27:19.367Z,95822.22
2022-12-11T10:29:48.321Z,95827.16
2022-12-11T10:32:25.373Z,95824.38
2022-12-11T10:35:00.750Z,95818.13
2022-12-11T10:37:29.435Z,95823.75
2022-12-11T10:39:57.543Z,95812.47
2022-12-11T10:42:25.629Z,95815.59
2022-12-11T10:44:59.886Z,95807.34
2022-12-11T10:47:29.981Z,95801.41
2022-12-11T10:50:00.686Z,95800.53
2022-12-11T10:52:34.163Z,95797.19
2022-12-11T10:55:05.971Z,95790.91
2022-12-11T10:57:37.019Z,95797.38
2022-12-11T11:00:09.574Z,95794.34
2022-12-11T11:02:40.737Z,95796.13
2022-12-11T11:05:16.838Z,95795.56
2022-12-11T11:07:45.205Z,95787.59
2022-12-11T11:10:18.799Z,95779.25
2022-12-11T11:12:50.040Z,95778.81
2022-12-11T11:15:23.587Z,95776.44
2022-12-11T11:17:56.243Z,95776.91
2022-12-11T11:20:27.938Z,95786.50
2022-12-11T11:22:59.971Z,95778.44
2022-12-11T11:25:32.632Z,95780.03
2022-12-11T11:28:04.657Z,95778.44
2022-12-11T11:30:37.491Z,95773.66
2022-12-11T11:33:14.686Z,95775.56
2022-12-11T11:35:54.234Z,95771.13
2022-12-11T11:38:26.028Z,95777.28
2022-12-11T11:41:07.691Z,95770.28
2022-12-11T11:43:45.058Z,95762.84
2022-12-11T11:46:18.819Z,95769.81
2022-12-11T11:48:57.572Z,95763.72
2022-12-11T11:51:33.102Z,95763.22
2022-12-11T11:54:12.221Z,95768.41
2022-12-11T11:56:40.633Z,95762.78
2022-12-11T11:59:19.549Z,95762.66
2022-12-11T12:01:48.400Z,95760.59
2022-12-11T12:04:17.878Z,95760.75
2022-12-11T12:07:08.924Z,95768.81
2022-12-11T12:09:50.181Z,95755.44
2022-12-11T12:12:33.754Z,95764.66
2022-12-11T12:15:30.748Z,95758.22
2022-12-11T12:18:08.045Z,95759.88
2022-12-11T12:20:48.769Z,95764.66
2022-12-11T12:23:36.627Z,95761.63
2022-12-11T12:26:15.890Z,95763.00
2022-12-11T12:28:53.829Z,95753.44
2022-12-11T12:32:04.549Z,95754.84
2022-12-11T12:34:52.732Z,95736.97
2022-12-11T12:37:43.721Z,95742.09
2022-12-11T12:40:21.883Z,95740.28
2022-12-11T12:42:59.352Z,95741.94
2022-12-11T12:45:33.707Z,95743.75
2022-12-11T12:48:02.918Z,95734.59
2022-12-11T12:50:42.770Z,95735.97
2022-12-11T12:53:20.384Z,95731.06
2022-12-11T12:55:49.925Z,95735.22
2022-12-11T12:58:30.233Z,95732.06
2022-12-11T13:01:09.724Z,95735.28
2022-12-11T13:03:50.917Z,95730.06
2022-12-11T13:06:37.932Z,95743.66
2022-12-11T13:09:18.673Z,95738.22
2022-12-11T13:11:50.127Z,95741.25
2022-12-11T13:14:31.051Z,95737.69
2022-12-11T13:17:26.328Z,95738.28
2022-12-11T13:20:15.163Z,95744.06
2022-12-11T13:23:08.884Z,95729.09
2022-12-11T13:25:54.379Z,95735.63
2022-12-11T13:28:28.588Z,95738.78
2022-12-11T13:31:27.270Z,95739.59
2022-12-11T13:33:58.389Z,95738.22
2022-12-11T13:36:34.062Z,95735.75
2022-12-11T13:39:17.459Z,95740.59
2022-12-11T13:41:51.362Z,95749.66
2022-12-11T13:44:25.669Z,95737.72
2022-12-11T13:46:56.900Z,95744.88
2022-12-11T13:49:29.258Z,95739.69
2022-12-11T13:52:00.506Z,95735.28
2022-12-11T13:54:59.165Z,95744.81
2022-12-11T13:57:29.328Z,95749.84
2022-12-11T13:59:59.513Z,95754.69
2022-12-11T14:02:33.126Z,95747.75
2022-12-11T14:05:06.945Z,95743.16
2022-12-11T14:07:39.200Z,95753.56
2022-12-11T14:10:17.072Z,95743.66
2022-12-11T14:12:57.406Z,95749.84
2022-12-11T14:15:29.152Z,95758.22
2022-12-11T14:17:59.316Z,95752.22
2022-12-11T14:20:31.009Z,95758.00
2022-12-11T14:23:07.659Z,95756.41
2022-12-11T14:25:36.045Z,95760.56
2022-12-11T14:28:05.652Z,95762.72
2022-12-11T14:30:37.496Z,95765.94
2022-12-11T14:33:06.871Z,95768.28
2022-12-11T14:35:40.330Z,95768.66
2022-12-11T14:38:17.576Z,95776.09
2022-12-11T14:40:51.604Z,95776.16
2022-12-11T14:43:29.412Z,95778.56
2022-12-11T14:46:02.990Z,95780.56
2022-12-11T14:48:37.131Z,95779.22
2022-12-11T14:51:09.498Z,95775.38
2022-12-11T14:53:42.807Z,95782.19
2022-12-11T14:56:20.032Z,95779.31
2022-12-11T14:58:57.118Z,95780.13
2022-12-11T15:01:29.694Z,95781.53
2022-12-11T15:04:09.205Z,95782.53
2022-12-11T15:06:46.664Z,95774.66
2022-12-11T15:09:21.683Z,95774.25
2022-12-11T15:11:51.599Z,95774.34
2022-12-11T15:14:24.075Z,95774.72
2022-12-11T15:16:54.647Z,95777.75
2022-12-11T15:19:29.554Z,95779.56
2022-12-11T15:22:04.041Z,95794.16
2022-12-11T15:24:39.133Z,95787.53
2022-12-11T15:27:24.865Z,95799.88
2022-12-11T15:29:54.446Z,95796.22
2022-12-11T15:32:23.354Z,95794.63
2022-12-11T15:34:54.470Z,95793.09
2022-12-11T15:37:25.763Z,95795.94
2022-12-11T15:39:55.829Z,95803.56
2022-12-11T15:42:30.968Z,95798.53
2022-12-11T15:45:01.424Z,95802.31
2022-12-11T15:47:32.291Z,95807.09
2022-12-11T15:50:02.988Z,95803.72
2022-12-11T15:52:32.527Z,95811.44
2022-12-11T15:55:00.623Z,95806.44
2022-12-11T15:57:28.735Z,95805.28
2022-12-11T15:59:57.058Z,95810.19
2022-12-11T16:02:27.916Z,95806.63
2022-12-11T16:04:57.302Z,95807.16
2022-12-11T16:07:27.583Z,95808.41
2022-12-11T16:09:55.735Z,95810.34
2022-12-11T16:12:23.787Z,95812.97
2022-12-11T16:14:51.913Z,95815.13
2022-12-11T16:17:20.466Z,95809.13
2022-12-11T16:19:49.910Z,95812.84
2022-12-11T16:22:18.048Z,95813.84
2022-12-11T16:24:46.156Z,95808.66
2022-12-11T16:27:18.624Z,95811.59
2022-12-11T16:29:50.423Z,95816.56
2022-12-11T16:32:18.719Z,95811.00
2022-12-11T16:34:47.000Z,95813.59
2022-12-11T16:37:16.705Z,95814.59
2022-12-11T16:39:45.978Z,95809.75
2022-12-11T16:42:14.093Z,95815.94
2022-12-11T16:44:44.367Z,95811.00
2022-12-11T16:47:12.682Z,95815.38
2022-12-11T16:49:40.864Z,95814.09
2022-12-11T16:52:09.040Z,95819.34
2022-12-11T16:54:38.792Z,95812.81
2022-12-11T16:57:06.912Z,95815.94
2022-12-11T16:59:37.364Z,95815.50
2022-12-11T17:02:06.403Z,95820.47
2022-12-11T17:04:34.524Z,95816.50
2022-12-11T17:07:02.620Z,95815.50
2022-12-11T17:09:30.729Z,95818.38
2022-12-11T17:12:00.441Z,95813.28
2022-12-11T17:14:28.820Z,95813.66
2022-12-11T17:16:57.780Z,95815.78
2022-12-11T17:19:25.915Z,95807.28
2022-12-11T17:21:55.519Z,95802.25
2022-12-11T17:24:23.788Z,95801.53
2022-12-11T17:26:53.722Z,95801.63
2022-12-11T17:29:23.159Z,95809.16
2022-12-11T17:31:51.915Z,95806.75
2022-12-11T17:34:20.100Z,95805.22
2022-12-11T17:36:48.298Z,95805.22
2022-12-11T17:39:16.644Z,95809.06
2022-12-11T17:41:44.717Z,95800.19
2022-12-11T17:44:12.944Z,95802.78
2022-12-11T17:46:43.069Z,95796.59
2022-12-11T17:49:11.421Z,95793.84
2022-12-11T17:51:39.591Z,95799.38
2022-12-11T17:54:07.688Z,95800.09
2022-12-11T17:56:36.243Z,95796.59
2022-12-11T17:59:04.992Z,95788.91
2022-12-11T18:01:33.324Z,95792.13
2022-12-11T18:04:02.979Z,95796.31
2022-12-11T18:06:31.574Z,95794.53
2022-12-11T18:08:59.763Z,95790.94
2022-12-11T18:11:28.237Z,95788.59
2022-12-11T18:13:56.577Z,95790.41
2022-12-11T18:16:28.884Z,95797.22
2022-12-11T18:18:57.473Z,95791.78
2022-12-11T18:21:29.933Z,95793.72
2022-12-11T18:23:58.937Z,95783.72
2022-12-11T18:26:27.434Z,95783.25
2022-12-11T18:28:56.219Z,95793.28
2022-12-11T18:31:25.676Z,95791.69
2022-12-11T18:33:54.211Z,95793.84
2022-12-11T18:36:23.157Z,95792.94
2022-12-11T18:38:52.588Z,95787.91
2022-12-11T18:41:21.417Z,95789.88
2022-12-11T18:43:49.585Z,95791.88
2022-12-11T18:46:20.837Z,95793.22
2022-12-11T18:48:50.028Z,95790.88
2022-12-11T18:51:22.590Z,95790.06
2022-12-11T18:53:52.893Z,95786.31
2022-12-11T18:56:22.857Z,95788.91
2022-12-11T18:58:52.947Z,95783.63
2022-12-11T19:01:23.859Z,95784.88
2022-12-11T19:04:00.799Z,95781.84
2022-12-11T19:06:35.348Z,95785.84
2022-12-11T19:09:08.789Z,95792.41
2022-12-11T19:11:40.347Z,95791.59
2022-12-11T19:14:09.711Z,95798.41
2022-12-11T19:16:41.960Z,95797.25
2022-12-11T19:19:13.354Z,95799.03
2022-12-11T19:21:42.329Z,95788.03
2022-12-11T19:24:15.674Z,95793.03
2022-12-11T19:26:44.958Z,95792.59
2022-12-11T19:29:22.200Z,95794.00
2022-12-11T19:31:50.589Z,95792.16
2022-12-11T19:34:19.056Z,95793.84
2022-12-11T19:36:47.302Z,95790.53
2022-12-11T19:39:16.877Z,95789.84
2022-12-11T19:41:45.345Z,95802.66
2022-12-11T19:44:14.002Z,95794.22
2022-12-11T19:46:42.217Z,95798.69
2022-12-11T19:49:12.465Z,95793.13
2022-12-11T19:51:43.679Z,95789.75
2022-12-11T19:54:17.125Z,95787.41
2022-12-11T19:56:46.087Z,95805.34
2022-12-11T19:59:16.904Z,95801.75
2022-12-11T20:01:47.958Z,95806.63
2022-12-11T20:04:18.353Z,95802.91
2022-12-11T20:06:48.022Z,95809.16
2022-12-11T20:09:18.014Z,95809.34
2022-12-11T20:11:48.285Z,95806.69
2022-12-11T20:14:22.064Z,95820.03
2022-12-11T20:17:10.890Z,95815.47
2022-12-11T20:19:40.106Z,95816.63
2022-12-11T20:22:09.018Z,95825.19
2022-12-11T20:24:38.755Z,95823.50
2022-12-11T20:27:07.080Z,95825.09
2022-12-11T20:29:35.185Z,95823.59
2022-12-11T20:32:03.795Z,95813.06
2022-12-11T20:34:33.807Z,95818.75
2022-12-11T20:37:07.742Z,95818.59
2022-12-11T20:39:35.904Z,95826.38
2022-12-11T20:42:05.676Z,95819.91
2022-12-11T20:44:33.901Z,95819.22
2022-12-11T20:47:02.198Z,95828.53
2022-12-11T20:49:30.256Z,95832.66
2022-12-11T20:51:59.451Z,95835.03
2022-12-11T20:54:27.566Z,95826.09
2022-12-11T20:56:55.677Z,95833.88
2022-12-11T20:59:26.073Z,95836.66
2022-12-11T21:01:54.347Z,95830.28
2022-12-11T21:04:22.547Z,95834.81
2022-12-11T21:06:55.500Z,95831.66
2022-12-11T21:09:26.065Z,95832.91
2022-12-11T21:11:54.686Z,95841.34
2022-12-11T21:14:24.097Z,95840.38
2022-12-11T21:16:52.463Z,95834.81
2022-12-11T21:19:21.424Z,95835.72
2022-12-11T21:21:50.312Z,95837.66
2022-12-11T21:24:21.365Z,95833.00
2022-12-11T21:26:50.287Z,95830.69
2022-12-11T21:29:18.988Z,95826.94
2022-12-11T21:31:48.538Z,95830.97
2022-12-11T21:34:20.628Z,95834.19
2022-12-11T21:36:54.647Z,95830.06
2022-12-11T21:39:22.847Z,95831.97
2022-12-11T21:41:51.019Z,95842.03
2022-12-11T21:47:08.718Z,95839.34
2022-12-11T21:49:37.919Z,95851.94
2022-12-11T21:52:08.322Z,95843.19
2022-12-11T21:54:37.008Z,95845.56
2022-12-11T21:57:05.360Z,95850.66
2022-12-11T21:59:33.861Z,95854.59
2022-12-11T22:02:02.050Z,95856.50
2022-12-11T22:04:31.587Z,95861.69
2022-12-11T22:06:59.732Z,95853.56
2022-12-11T22:09:27.892Z,95854.34
2022-12-11T22:11:58.669Z,95847.91
2022-12-11T22:14:27.466Z,95856.84
2022-12-11T22:16:55.737Z,95848.38
2022-12-11T22:19:27.757Z,95849.91
2022-12-11T22:22:00.451Z,95854.44
2022-12-11T22:24:28.671Z,95856.88
2022-12-11T22:26:56.805Z,95853.50
2022-12-11T22:29:25.013Z,95850.53
2022-12-11T22:31:53.423Z,95843.72
2022-12-11T22:34:21.673Z,95842.81
2022-12-11T22:36:49.895Z,95842.81
2022-12-11T22:39:19.658Z,95853.75
2022-12-11T22:41:47.746Z,95857.06
2022-12-11T22:44:18.136Z,95852.84
2022-12-11T22:46:49.959Z,95855.19
2022-12-11T22:49:20.296Z,95860.13
2022-12-11T22:51:48.930Z,95849.44
2022-12-11T22:54:17.288Z,95857.34
2022-12-11T22:56:46.844Z,95859.31
2022-12-11T22:59:14.954Z,95850.53
2022-12-11T23:01:43.215Z,95851.16
2022-12-11T23:04:11.384Z,95860.13
2022-12-11T23:06:39.940Z,95854.84
2022-12-11T23:09:08.483Z,95849.91
2022-12-11T23:11:38.842Z,95851.69
2022-12-11T23:14:14.783Z,95850.34
2022-12-11T23:16:43.747Z,95850.59
2022-12-11T23:19:12.998Z,95856.78
2022-12-11T23:21:41.492Z,95849.63
2022-12-11T23:24:10.512Z,95850.97
2022-12-11T23:26:39.133Z,95854.91
2022-12-11T23:29:09.805Z,95852.94
2022-12-11T23:31:37.965Z,95854.53
2022-12-11T23:34:06.156Z,95851.84
2022-12-11T23:36:34.722Z,95851.31
2022-12-11T23:39:02.807Z,95852.81
2022-12-11T23:41:30.949Z,95855.59
2022-12-11T23:44:00.404Z,95856.09
2022-12-11T23:46:29.898Z,95853.25
2022-12-11T23:48:58.180Z,95847.88
2022-12-11T23:51:27.025Z,95854.56
2022-12-11T23:53:55.956Z,95845.97
2022-12-11T23:56:28.311Z,95857.16
2022-12-11T23:58:57.413Z,95852.31
